createdAt,value
2023-04-07T00:01:47.880Z,12.70
2023-04-07T00:05:02.965Z,12.03
2023-04-07T00:08:19.202Z,11.98
2023-04-07T00:11:27.896Z,13.75
2023-04-07T00:14:36.418Z,11.98
2023-04-07T00:17:45.080Z,12.70
2023-04-07T00:20:53.498Z,12.40
2023-04-07T00:24:02.649Z,12.10
2023-04-07T00:27:10.728Z,12.10
2023-04-07T00:30:19.038Z,13.27
2023-04-07T00:33:34.942Z,12.57
2023-04-07T00:36:43.209Z,12.47
2023-04-07T00:39:58.901Z,13.02
2023-04-07T00:43:08.577Z,12.50
2023-04-07T00:46:21.130Z,12.37
2023-04-07T00:49:29.628Z,13.13
2023-04-07T00:52:44.945Z,12.13
2023-04-07T00:55:47.052Z,12.45
2023-04-07T00:59:01.939Z,11.85
2023-04-07T01:02:24.226Z,12.55
2023-04-07T01:05:40.481Z,12.03
2023-04-07T01:09:10.630Z,12.97
2023-04-07T01:12:25.486Z,12.40
2023-04-07T01:15:42.210Z,11.98
2023-04-07T01:18:54.898Z,13.15
2023-04-07T01:22:12.373Z,12.37
2023-04-07T01:25:40.913Z,12.40
2023-04-07T01:29:15.932Z,12.60
2023-04-07T01:32:19.672Z,12.80
2023-04-07T01:35:43.036Z,11.93
2023-04-07T01:38:52.592Z,13.03
2023-04-07T01:42:01.959Z,12.13
2023-04-07T01:45:11.495Z,12.50
2023-04-07T01:48:20.961Z,11.95
2023-04-07T01:51:31.138Z,11.88
2023-04-07T01:54:39.948Z,11.73
2023-04-07T01:57:55.258Z,11.87
2023-04-07T02:01:04.128Z,11.25
2023-04-07T02:04:29.968Z,11.75
2023-04-07T02:07:47.056Z,12.05
2023-04-07T02:10:57.982Z,12.40
2023-04-07T02:14:15.181Z,12.00
2023-04-07T02:17:17.831Z,11.77
2023-04-07T02:20:34.966Z,10.90
2023-04-07T02:23:49.953Z,11.77
2023-04-07T02:26:52.703Z,12.77
2023-04-07T02:30:07.259Z,11.43
2023-04-07T02:33:16.002Z,11.60
2023-04-07T02:36:31.357Z,11.23
2023-04-07T02:39:42.429Z,11.57
2023-04-07T02:42:50.799Z,11.43
2023-04-07T02:45:59.032Z,10.77
2023-04-07T02:49:13.963Z,11.18
2023-04-07T02:52:16.765Z,11.70
2023-04-07T02:55:31.012Z,11.27
2023-04-07T02:58:46.197Z,11.50
2023-04-07T03:02:02.159Z,11.73
2023-04-07T03:05:04.487Z,11.82
2023-04-07T03:08:18.986Z,11.30
2023-04-07T03:11:23.816Z,11.40
2023-04-07T03:14:39.199Z,11.57
2023-04-07T03:17:40.909Z,10.93
2023-04-07T03:20:55.985Z,11.52
2023-04-07T03:23:58.708Z,11.45
2023-04-07T03:27:12.959Z,11.60
2023-04-07T03:30:14.933Z,11.17
2023-04-07T03:33:29.975Z,11.00
2023-04-07T03:36:46.666Z,11.20
2023-04-07T03:40:02.960Z,10.90
2023-04-07T03:43:11.313Z,12.00
2023-04-07T03:46:36.094Z,12.23
2023-04-07T03:49:40.681Z,12.20
2023-04-07T03:52:58.066Z,12.73
2023-04-07T03:56:13.216Z,10.65
2023-04-07T03:59:15.204Z,11.43
2023-04-07T04:02:30.116Z,12.07
2023-04-07T04:05:31.886Z,12.43
2023-04-07T04:08:47.990Z,11.65
2023-04-07T04:12:03.014Z,11.50
2023-04-07T04:15:13.089Z,11.77
2023-04-07T04:18:28.032Z,11.47
2023-04-07T04:21:48.658Z,10.50
2023-04-07T04:25:13.045Z,11.98
2023-04-07T04:28:21.033Z,12.05
2023-04-07T04:31:29.576Z,11.07
2023-04-07T04:34:38.035Z,12.63
2023-04-07T04:37:53.290Z,11.83
2023-04-07T04:41:02.008Z,11.57
2023-04-07T04:44:17.669Z,11.85
2023-04-07T04:47:38.822Z,12.13
2023-04-07T04:50:53.225Z,12.00
2023-04-07T04:54:01.003Z,11.80
2023-04-07T04:57:19.259Z,11.25
2023-04-07T05:00:22.312Z,11.70
2023-04-07T05:03:38.367Z,10.93
2023-04-07T05:06:49.895Z,11.83
2023-04-07T05:09:59.682Z,12.33
2023-04-07T05:13:15.022Z,11.70
2023-04-07T05:16:37.368Z,11.02
2023-04-07T05:19:46.000Z,11.18
2023-04-07T05:22:54.534Z,11.50
2023-04-07T05:26:03.046Z,10.37
2023-04-07T05:29:19.054Z,11.50
2023-04-07T05:32:35.099Z,10.93
2023-04-07T05:35:45.128Z,11.70
2023-04-07T05:39:10.016Z,12.07
2023-04-07T05:42:11.814Z,11.47
2023-04-07T05:45:26.088Z,11.35
2023-04-07T05:48:36.301Z,12.27
2023-04-07T05:51:46.234Z,12.73
2023-04-07T05:55:11.129Z,11.90
2023-04-07T05:58:30.223Z,12.00
2023-04-07T06:01:45.141Z,12.65
2023-04-07T06:04:47.269Z,12.52
2023-04-07T06:08:04.101Z,12.75
2023-04-07T06:11:08.623Z,12.27
2023-04-07T06:14:24.005Z,11.93
2023-04-07T06:17:25.753Z,12.60
2023-04-07T06:20:41.086Z,12.48
2023-04-07T06:23:42.809Z,11.88
2023-04-07T06:26:59.016Z,12.00
2023-04-07T06:30:07.025Z,12.80
2023-04-07T06:33:18.563Z,11.65
2023-04-07T06:36:36.349Z,13.18
2023-04-07T06:39:51.065Z,12.60
2023-04-07T06:42:59.155Z,11.40
2023-04-07T06:46:14.081Z,13.00
2023-04-07T06:49:22.079Z,12.13
2023-04-07T06:52:30.652Z,13.45
2023-04-07T06:55:45.066Z,11.93
2023-04-07T06:58:53.965Z,12.70
2023-04-07T07:02:09.435Z,13.50
2023-04-07T07:05:11.862Z,14.45
2023-04-07T07:08:26.083Z,13.52
2023-04-07T07:11:30.261Z,12.98
2023-04-07T07:14:45.099Z,13.90
2023-04-07T07:17:47.073Z,14.57
2023-04-07T07:21:02.067Z,15.13
2023-04-07T07:24:11.383Z,14.02
2023-04-07T07:27:26.108Z,14.85
2023-04-07T07:30:28.034Z,13.73
2023-04-07T07:33:44.328Z,14.50
2023-04-07T07:37:06.086Z,14.82
2023-04-07T07:40:21.121Z,14.07
2023-04-07T07:43:30.029Z,14.43
2023-04-07T07:46:45.363Z,14.80
2023-04-07T07:49:56.872Z,14.70
2023-04-07T07:53:11.180Z,14.48
2023-04-07T07:56:20.566Z,15.13
2023-04-07T07:59:30.089Z,14.55
2023-04-07T08:02:40.384Z,15.23
2023-04-07T08:05:56.119Z,14.50
2023-04-07T08:08:57.985Z,14.50
2023-04-07T08:12:13.205Z,12.85
2023-04-07T08:15:28.122Z,14.60
2023-04-07T08:18:46.384Z,14.60
2023-04-07T08:25:24.082Z,15.18
2023-04-07T08:28:34.349Z,13.40
2023-04-07T08:31:44.264Z,13.43
2023-04-07T08:38:28.102Z,12.23
2023-04-07T08:41:36.717Z,12.55
2023-04-07T08:44:53.117Z,13.23
2023-04-07T08:47:56.073Z,13.23
2023-04-07T08:54:45.432Z,13.90
2023-04-07T08:57:48.189Z,12.32
2023-04-07T09:01:05.233Z,13.07
2023-04-07T09:04:11.994Z,11.40
2023-04-07T09:07:27.097Z,11.63
2023-04-07T09:10:40.329Z,12.00
2023-04-07T09:13:50.835Z,12.43
2023-04-07T09:17:06.100Z,12.80
2023-04-07T09:20:16.133Z,11.70
2023-04-07T09:23:46.223Z,11.90
2023-04-07T09:26:56.129Z,11.87
2023-04-07T09:30:21.911Z,13.55
2023-04-07T09:33:47.019Z,12.60
2023-04-07T09:37:03.104Z,12.60
2023-04-07T09:40:12.052Z,11.87
2023-04-07T09:43:46.597Z,12.63
2023-04-07T09:47:04.409Z,11.82
2023-04-07T09:50:07.324Z,14.57
2023-04-07T09:53:23.306Z,12.90
2023-04-07T09:56:28.203Z,12.40
2023-04-07T09:59:46.137Z,12.40
2023-04-07T10:02:48.573Z,12.15
2023-04-07T10:06:04.248Z,12.52
2023-04-07T10:09:13.264Z,12.25
2023-04-07T10:12:22.068Z,13.60
2023-04-07T10:15:30.155Z,13.17
2023-04-07T10:18:50.186Z,13.10
2023-04-07T10:21:54.262Z,13.15
2023-04-07T10:25:15.613Z,13.43
2023-04-07T10:28:35.181Z,13.27
2023-04-07T10:31:51.182Z,12.87
2023-04-07T10:35:07.357Z,13.65
2023-04-07T10:38:18.397Z,15.00
2023-04-07T10:41:44.201Z,14.50
2023-04-07T10:44:50.472Z,14.47
2023-04-07T10:48:17.398Z,13.40
2023-04-07T10:51:27.389Z,13.27
2023-04-07T10:54:55.385Z,12.93
2023-04-07T10:58:25.342Z,15.57
2023-04-07T11:01:34.234Z,14.00
2023-04-07T11:04:46.531Z,14.67
2023-04-07T11:08:01.446Z,13.57
2023-04-07T11:11:42.218Z,15.73
2023-04-07T11:14:44.849Z,12.85
2023-04-07T11:18:19.191Z,13.93
2023-04-07T11:21:22.416Z,12.33
2023-04-07T11:25:01.138Z,11.68
2023-04-07T11:28:11.385Z,11.10
2023-04-07T11:31:24.113Z,12.05
2023-04-07T11:34:41.190Z,12.30
2023-04-07T11:37:59.479Z,11.53
2023-04-07T11:41:19.250Z,11.38
2023-04-07T11:44:49.272Z,11.60
2023-04-07T11:47:57.507Z,11.80
2023-04-07T11:51:22.163Z,10.87
2023-04-07T11:54:30.181Z,11.67
2023-04-07T11:57:43.616Z,11.57
2023-04-07T12:01:10.565Z,11.65
2023-04-07T12:04:19.959Z,11.63
2023-04-07T12:07:35.208Z,12.67
2023-04-07T12:10:45.139Z,12.90
2023-04-07T12:14:03.423Z,12.85
2023-04-07T12:17:29.268Z,13.32
2023-04-07T12:20:32.078Z,11.30
2023-04-07T12:23:48.277Z,13.13
2023-04-07T12:26:50.327Z,13.57
2023-04-07T12:30:08.198Z,13.52
2023-04-07T12:33:16.209Z,13.15
2023-04-07T12:36:47.588Z,13.18
2023-04-07T12:40:03.214Z,13.67
2023-04-07T12:43:29.203Z,14.57
2023-04-07T12:46:46.809Z,14.00
2023-04-07T12:50:02.329Z,13.95
2023-04-07T12:56:35.206Z,13.03
2023-04-07T12:59:59.435Z,12.60
2023-04-07T13:03:01.557Z,12.88
2023-04-07T13:06:18.366Z,13.27
2023-04-07T13:09:35.206Z,14.32
2023-04-07T13:12:44.069Z,14.13
2023-04-07T13:16:10.261Z,12.37
2023-04-07T13:19:31.525Z,14.25
2023-04-07T13:22:35.707Z,13.73
2023-04-07T13:25:50.326Z,14.43
2023-04-07T13:29:03.497Z,13.93
2023-04-07T13:35:37.057Z,14.50
2023-04-07T13:39:00.271Z,14.73
2023-04-07T13:42:08.460Z,14.80
2023-04-07T13:45:17.000Z,14.53
2023-04-07T13:48:25.222Z,14.20
2023-04-07T13:51:51.114Z,15.20
2023-04-07T13:55:00.342Z,15.43
2023-04-07T13:58:09.130Z,15.80
2023-04-07T14:01:17.236Z,15.50
2023-04-07T14:04:25.952Z,16.33
2023-04-07T14:07:34.251Z,14.43
2023-04-07T14:10:44.712Z,14.05
2023-04-07T14:14:04.701Z,15.88
2023-04-07T14:17:15.353Z,15.07
2023-04-07T14:20:32.260Z,15.00
2023-04-07T14:23:37.959Z,14.73
2023-04-07T14:26:53.561Z,14.87
2023-04-07T14:29:59.560Z,15.73
2023-04-07T14:33:20.250Z,14.80
2023-04-07T14:36:29.141Z,15.80
2023-04-07T14:39:55.247Z,15.80
2023-04-07T14:43:10.299Z,16.02
2023-04-07T14:46:19.023Z,15.65
2023-04-07T14:49:28.302Z,17.03
2023-04-07T14:52:43.286Z,16.47
2023-04-07T14:55:45.198Z,15.35
2023-04-07T14:59:00.373Z,15.98
2023-04-07T15:02:02.161Z,14.55
2023-04-07T15:05:21.767Z,15.57
2023-04-07T15:08:38.279Z,16.97
2023-04-07T15:11:50.493Z,17.15
2023-04-07T15:15:06.177Z,17.10
2023-04-07T15:18:14.311Z,16.08
2023-04-07T15:21:25.520Z,15.77
2023-04-07T15:24:40.340Z,14.93
2023-04-07T15:27:43.750Z,15.52
2023-04-07T15:30:59.652Z,16.85
2023-04-07T15:34:08.268Z,19.52
2023-04-07T15:37:23.273Z,16.40
2023-04-07T15:40:33.902Z,15.57
2023-04-07T15:43:48.541Z,16.05
2023-04-07T15:46:59.664Z,15.60
2023-04-07T15:50:18.460Z,16.37
2023-04-07T15:53:26.537Z,15.47
2023-04-07T15:56:34.837Z,16.30
2023-04-07T15:59:43.377Z,17.20
2023-04-07T16:02:52.340Z,15.63
2023-04-07T16:06:01.287Z,17.65
2023-04-07T16:09:16.587Z,18.77
2023-04-07T16:12:24.915Z,18.47
2023-04-07T16:15:40.573Z,17.37
2023-04-07T16:19:01.562Z,16.65
2023-04-07T16:22:03.526Z,17.62
2023-04-07T16:25:19.373Z,16.67
2023-04-07T16:28:34.320Z,17.43
2023-04-07T16:31:42.509Z,16.17
2023-04-07T16:34:57.549Z,18.35
2023-04-07T16:38:06.078Z,16.70
2023-04-07T16:41:45.542Z,16.50
2023-04-07T16:44:54.330Z,17.13
2023-04-07T16:51:32.047Z,18.33
2023-04-07T16:54:41.309Z,16.70
2023-04-07T16:57:57.571Z,16.63
2023-04-07T17:01:06.366Z,18.07
2023-04-07T17:04:21.463Z,17.37
2023-04-07T17:07:23.318Z,18.37
2023-04-07T17:10:39.347Z,16.50
2023-04-07T17:14:01.637Z,17.43
2023-04-07T17:17:16.338Z,18.93
2023-04-07T17:20:27.525Z,19.50
2023-04-07T17:23:36.850Z,18.10
2023-04-07T17:26:46.358Z,17.55
2023-04-07T17:30:03.178Z,17.90
2023-04-07T17:33:06.042Z,17.67
2023-04-07T17:36:24.314Z,17.62
2023-04-07T17:39:35.915Z,18.65
2023-04-07T17:43:03.532Z,17.23
2023-04-07T17:46:08.296Z,16.67
2023-04-07T17:49:24.321Z,22.33
2023-04-07T17:52:25.997Z,18.45
2023-04-07T17:55:42.541Z,17.85
2023-04-07T17:58:46.165Z,20.15
2023-04-07T18:02:01.437Z,19.17
2023-04-07T18:05:13.329Z,18.90
2023-04-07T18:08:22.123Z,17.80
2023-04-07T18:11:30.677Z,18.20
2023-04-07T18:14:39.039Z,20.23
2023-04-07T18:17:54.332Z,18.17
2023-04-07T18:21:20.509Z,15.93
2023-04-07T18:24:29.573Z,16.87
2023-04-07T18:27:37.994Z,16.37
2023-04-07T18:30:46.338Z,16.17
2023-04-07T18:34:07.143Z,16.37
2023-04-07T18:37:16.593Z,17.90
2023-04-07T18:40:32.286Z,17.05
2023-04-07T18:43:52.426Z,17.10
2023-04-07T18:47:02.629Z,17.87
2023-04-07T18:50:23.563Z,16.60
2023-04-07T18:53:31.947Z,17.63
2023-04-07T18:56:40.345Z,16.25
2023-04-07T18:59:48.924Z,18.00
2023-04-07T19:02:57.526Z,20.35
2023-04-07T19:06:12.370Z,17.80
2023-04-07T19:09:25.325Z,17.93
2023-04-07T19:12:55.560Z,18.55
2023-04-07T19:16:05.490Z,17.08
2023-04-07T19:19:14.097Z,17.45
2023-04-07T19:22:26.454Z,18.13
2023-04-07T19:25:44.365Z,19.20
2023-04-07T19:28:47.286Z,19.48
2023-04-07T19:32:05.559Z,17.98
2023-04-07T19:35:13.907Z,19.77
2023-04-07T19:38:22.552Z,19.37
2023-04-07T19:41:44.349Z,19.10
2023-04-07T19:44:49.163Z,18.27
2023-04-07T19:48:03.585Z,18.08
2023-04-07T19:51:16.090Z,19.10
2023-04-07T19:54:33.996Z,18.40
2023-04-07T19:57:35.689Z,19.40
2023-04-07T20:00:52.103Z,19.25
2023-04-07T20:04:01.595Z,18.27
2023-04-07T20:07:10.981Z,19.27
2023-04-07T20:10:22.454Z,19.30
2023-04-07T20:13:37.380Z,18.53
2023-04-07T20:16:45.490Z,17.92
2023-04-07T20:19:54.392Z,18.10
2023-04-07T20:23:02.414Z,18.75
2023-04-07T20:26:17.577Z,18.20
2023-04-07T20:29:30.825Z,17.87
2023-04-07T20:32:46.210Z,19.45
2023-04-07T20:35:48.631Z,17.87
2023-04-07T20:39:06.878Z,19.15
2023-04-07T20:42:21.705Z,17.40
2023-04-07T20:45:30.404Z,19.07
2023-04-07T20:48:45.422Z,20.23
2023-04-07T20:51:47.249Z,18.98
2023-04-07T20:55:02.669Z,18.80
2023-04-07T20:58:04.632Z,18.80
2023-04-07T21:01:19.487Z,18.47
2023-04-07T21:04:27.489Z,17.70
2023-04-07T21:07:43.153Z,17.77
2023-04-07T21:10:48.118Z,18.15
2023-04-07T21:14:03.434Z,16.70
2023-04-07T21:31:15.578Z,15.68
2023-04-07T21:34:27.477Z,18.10
2023-04-07T21:37:42.450Z,16.58
2023-04-07T21:41:00.613Z,16.30
2023-04-07T21:44:11.739Z,14.50
2023-04-07T21:47:22.454Z,13.50
2023-04-07T21:50:38.446Z,13.55
2023-04-07T21:53:40.482Z,13.20
2023-04-07T21:56:56.453Z,13.63
2023-04-07T21:59:58.114Z,13.67
2023-04-07T22:03:18.994Z,13.52
2023-04-07T22:06:27.692Z,12.57
2023-04-07T22:09:37.490Z,13.57
2023-04-07T22:12:56.457Z,14.07
2023-04-07T22:16:05.311Z,14.10
2023-04-07T22:19:14.865Z,13.98
2023-04-07T22:22:23.162Z,13.93
2023-04-07T22:25:31.477Z,13.30
2023-04-07T22:28:46.523Z,13.23
2023-04-07T22:32:01.430Z,13.13
2023-04-07T22:35:17.498Z,13.70
2023-04-07T22:38:19.667Z,12.85
2023-04-07T22:41:35.727Z,13.95
2023-04-07T22:44:37.673Z,13.47
2023-04-07T22:47:58.459Z,12.60
2023-04-07T22:51:03.292Z,14.43
2023-04-07T22:54:19.226Z,14.07
2023-04-07T22:57:30.522Z,16.27
2023-04-07T23:00:47.816Z,13.60
2023-04-07T23:04:02.734Z,15.30
2023-04-07T23:07:17.565Z,14.77
2023-04-07T23:10:37.430Z,15.27
2023-04-07T23:13:45.662Z,14.63
2023-04-07T23:17:00.492Z,13.60
2023-04-07T23:20:02.252Z,13.73
2023-04-07T23:23:17.434Z,14.87
2023-04-07T23:26:29.110Z,12.68
2023-04-07T23:29:50.309Z,14.32
2023-04-07T23:33:05.639Z,13.73
2023-04-07T23:36:14.041Z,13.50
2023-04-07T23:39:23.805Z,13.98
2023-04-07T23:42:35.071Z,13.32
2023-04-07T23:45:43.619Z,13.85
2023-04-07T23:48:52.879Z,12.83
2023-04-07T23:52:07.494Z,13.37
2023-04-07T23:55:23.174Z,14.15
2023-04-07T23:58:31.496Z,13.60
